createdAt,value
2022-09-30T00:02:10.810Z,95851.47
2022-09-30T00:07:13.258Z,95863.34
2022-09-30T00:12:15.549Z,95848.53
2022-09-30T00:17:17.726Z,95852.38
2022-09-30T00:22:19.979Z,95858.81
2022-09-30T00:27:22.131Z,95860.88
2022-09-30T00:32:24.441Z,95860.59
2022-09-30T00:37:26.742Z,95850.69
2022-09-30T00:42:30.309Z,95855.97
2022-09-30T00:47:38.724Z,95878.81
2022-09-30T00:52:43.846Z,95855.13
2022-09-30T00:57:47.431Z,95868.63
2022-09-30T01:02:50.248Z,95879.09
2022-09-30T01:07:53.816Z,95864.59
2022-09-30T01:12:57.315Z,95884.03
2022-09-30T01:18:09.484Z,95869.44
2022-09-30T01:23:34.746Z,95869.44
2022-09-30T01:29:05.073Z,95890.44
2022-09-30T01:34:38.574Z,95886.66
2022-09-30T01:40:05.715Z,95906.78
2022-09-30T01:45:14.712Z,95896.03
2022-09-30T01:50:43.602Z,95904.53
2022-09-30T01:56:27.331Z,95907.19
2022-09-30T02:01:36.196Z,95894.31
2022-09-30T02:06:45.751Z,95866.00
2022-09-30T02:11:48.260Z,95879.94
2022-09-30T02:17:02.421Z,95899.00
2022-09-30T02:22:10.719Z,95872.63
2022-09-30T02:27:21.879Z,95870.03
2022-09-30T02:32:46.501Z,95892.75
2022-09-30T02:37:59.296Z,95891.06
2022-09-30T02:43:03.436Z,95892.34
2022-09-30T02:48:16.860Z,95889.50
2022-09-30T02:53:31.959Z,95906.50
2022-09-30T02:58:39.823Z,95910.06
2022-09-30T03:03:50.306Z,95910.06
2022-09-30T03:08:53.404Z,95923.78
2022-09-30T03:14:16.599Z,95925.31
2022-09-30T03:19:21.673Z,95932.66
2022-09-30T03:24:51.525Z,95935.38
2022-09-30T03:30:08.191Z,95926.03
2022-09-30T03:35:18.272Z,95914.56
2022-09-30T03:40:41.867Z,95927.91
2022-09-30T03:45:56.109Z,95905.94
2022-09-30T03:50:59.890Z,95906.34
2022-09-30T03:56:02.211Z,95914.78
2022-09-30T04:01:04.565Z,95905.84
2022-09-30T04:06:13.466Z,95885.41
2022-09-30T04:11:16.427Z,95901.06
2022-09-30T04:16:19.310Z,95894.44
2022-09-30T04:21:21.655Z,95911.66
2022-09-30T04:26:23.895Z,95910.59
2022-09-30T04:31:26.450Z,95913.97
2022-09-30T04:36:28.667Z,95923.94
2022-09-30T04:41:32.435Z,95910.06
2022-09-30T04:46:37.045Z,95936.53
2022-09-30T04:51:44.138Z,95913.13
2022-09-30T04:56:46.495Z,95933.38
2022-09-30T05:01:48.717Z,95959.31
2022-09-30T05:06:51.453Z,95951.03
2022-09-30T05:11:53.886Z,95957.81
2022-09-30T05:16:56.315Z,95971.25
2022-09-30T05:21:58.915Z,95972.75
2022-09-30T05:27:02.038Z,95959.81
2022-09-30T05:32:04.605Z,95963.38
2022-09-30T05:37:07.114Z,95949.94
2022-09-30T05:42:13.813Z,95970.06
2022-09-30T05:47:16.370Z,95965.03
2022-09-30T05:52:18.611Z,95982.38
2022-09-30T05:57:21.209Z,95968.56
2022-09-30T06:02:23.399Z,95972.47
2022-09-30T06:07:25.762Z,95988.41
2022-09-30T06:12:29.139Z,95989.81
2022-09-30T06:17:31.695Z,95966.81
2022-09-30T06:22:36.306Z,95970.59
2022-09-30T06:27:38.462Z,95981.09
2022-09-30T06:32:40.931Z,95957.66
2022-09-30T06:37:45.176Z,95966.78
2022-09-30T06:42:48.543Z,95950.38
2022-09-30T06:47:59.869Z,95936.34
2022-09-30T06:53:06.456Z,95957.19
2022-09-30T06:58:15.975Z,95955.13
2022-09-30T07:03:27.931Z,95967.16
2022-09-30T07:08:32.413Z,95974.94
2022-09-30T07:13:35.248Z,95955.59
2022-09-30T07:18:37.552Z,95973.13
2022-09-30T07:23:45.852Z,95972.97
2022-09-30T07:28:48.799Z,95968.63
2022-09-30T07:33:51.808Z,95960.19
2022-09-30T07:38:54.480Z,95960.09
2022-09-30T07:43:58.955Z,95977.16
2022-09-30T07:49:04.439Z,95977.28
2022-09-30T07:54:19.016Z,95992.84
2022-09-30T07:59:22.200Z,96003.44
2022-09-30T08:04:26.613Z,95978.94
2022-09-30T08:09:30.987Z,95989.25
2022-09-30T08:14:33.699Z,96004.56
2022-09-30T08:19:36.241Z,95979.50
2022-09-30T08:24:38.370Z,95980.44
2022-09-30T08:29:54.289Z,95969.28
2022-09-30T08:34:57.509Z,95993.56
2022-09-30T08:39:59.940Z,96015.88
2022-09-30T08:45:25.299Z,96019.75
2022-09-30T08:50:57.802Z,96024.63
2022-09-30T08:56:02.988Z,96014.03
2022-09-30T09:01:16.786Z,96017.03
2022-09-30T09:06:36.968Z,96020.50
2022-09-30T09:12:02.953Z,96014.53
2022-09-30T09:17:24.053Z,96038.88
2022-09-30T09:22:28.388Z,96042.47
2022-09-30T09:27:54.359Z,96031.78
2022-09-30T09:33:00.352Z,96053.41
2022-09-30T09:38:27.119Z,96048.09
2022-09-30T09:44:07.960Z,96042.25
2022-09-30T09:49:23.780Z,96043.25
2022-09-30T09:54:31.474Z,96033.84
2022-09-30T09:59:33.697Z,96012.66
2022-09-30T10:04:48.736Z,96024.72
2022-09-30T10:10:23.557Z,96015.81
2022-09-30T10:15:29.283Z,96025.44
2022-09-30T10:20:37.290Z,96018.66
2022-09-30T10:25:39.658Z,96024.59
2022-09-30T10:31:29.738Z,96000.00
2022-09-30T10:36:34.977Z,96053.56
2022-09-30T10:41:39.053Z,96038.75
2022-09-30T10:46:45.065Z,96045.66
2022-09-30T10:51:47.501Z,96017.00
2022-09-30T10:56:52.870Z,96030.72
2022-09-30T11:07:27.496Z,96044.38
2022-09-30T11:12:42.071Z,96044.84
2022-09-30T11:17:58.100Z,96064.06
2022-09-30T11:23:20.447Z,96051.31
2022-09-30T11:29:07.720Z,96049.91
2022-09-30T11:34:47.146Z,96044.00
2022-09-30T11:40:02.797Z,96046.81
2022-09-30T11:45:13.394Z,96035.75
2022-09-30T11:50:57.163Z,96045.78
2022-09-30T11:56:10.085Z,96036.41
2022-09-30T12:01:30.557Z,96025.53
2022-09-30T12:06:41.083Z,96056.19
2022-09-30T12:12:02.417Z,96054.16
2022-09-30T12:17:11.166Z,96050.53
2022-09-30T12:22:18.354Z,96041.44
2022-09-30T12:27:40.071Z,96034.13
2022-09-30T12:33:01.104Z,96050.88
2022-09-30T12:38:13.094Z,96057.69
2022-09-30T12:43:36.270Z,96075.13
2022-09-30T12:48:49.959Z,96071.44
2022-09-30T12:53:59.692Z,96062.69
2022-09-30T12:59:03.960Z,96066.81
2022-09-30T13:04:06.224Z,96078.56
2022-09-30T13:09:20.158Z,96080.75
2022-09-30T13:14:37.915Z,96097.66
2022-09-30T13:19:43.006Z,96087.03
2022-09-30T13:24:57.992Z,96098.63
2022-09-30T13:30:01.919Z,96105.91
2022-09-30T13:35:33.654Z,96102.59
2022-09-30T13:41:00.678Z,96111.28
2022-09-30T13:46:13.890Z,96112.22
2022-09-30T13:51:19.133Z,96111.97
2022-09-30T13:56:26.366Z,96128.38
2022-09-30T14:02:10.063Z,96137.06
2022-09-30T14:07:40.317Z,96127.78
2022-09-30T14:13:03.326Z,96135.34
2022-09-30T14:18:46.951Z,96131.56
2022-09-30T14:24:15.278Z,96136.47
2022-09-30T14:29:20.679Z,96152.88
2022-09-30T14:34:25.967Z,96150.84
2022-09-30T14:39:31.479Z,96151.09
2022-09-30T14:44:36.534Z,96162.34
2022-09-30T14:49:41.432Z,96185.69
2022-09-30T14:54:47.854Z,96197.50
2022-09-30T14:59:50.138Z,96164.09
2022-09-30T15:05:00.957Z,96203.56
2022-09-30T15:10:03.939Z,96205.69
2022-09-30T15:15:24.613Z,96223.66
2022-09-30T15:20:33.756Z,96230.72
2022-09-30T15:25:36.907Z,96234.31
2022-09-30T15:30:40.578Z,96247.41
2022-09-30T15:35:42.826Z,96258.31
2022-09-30T15:40:46.391Z,96263.16
2022-09-30T15:45:50.809Z,96258.59
2022-09-30T15:50:56.252Z,96269.47
2022-09-30T15:56:02.154Z,96270.56
2022-09-30T16:01:41.768Z,96281.38
2022-09-30T16:13:16.011Z,96255.16
2022-09-30T16:18:26.057Z,96280.09
2022-09-30T16:23:34.423Z,96295.34
2022-09-30T16:28:36.760Z,96295.19
2022-09-30T16:34:19.535Z,96306.03
2022-09-30T16:39:22.147Z,96319.75
2022-09-30T16:44:24.739Z,96300.47
2022-09-30T16:49:27.126Z,96315.28
2022-09-30T16:54:29.690Z,96353.44
2022-09-30T16:59:35.412Z,96338.88
2022-09-30T17:04:41.619Z,96362.91
2022-09-30T17:09:43.991Z,96348.44
2022-09-30T17:14:48.974Z,96353.28
2022-09-30T17:19:51.262Z,96336.69
2022-09-30T17:24:53.789Z,96390.53
2022-09-30T17:30:39.300Z,96372.44
2022-09-30T17:35:44.540Z,96368.31
2022-09-30T17:41:05.456Z,96424.75
2022-09-30T17:46:08.160Z,96424.69
2022-09-30T17:51:10.761Z,96395.44
2022-09-30T17:56:19.688Z,96424.44
2022-09-30T18:01:22.570Z,96429.75
2022-09-30T18:06:24.890Z,96440.66
2022-09-30T18:11:29.444Z,96413.00
2022-09-30T18:16:34.136Z,96471.69
2022-09-30T18:21:37.842Z,96472.31
2022-09-30T18:26:40.152Z,96449.44
2022-09-30T18:31:43.371Z,96462.88
2022-09-30T18:36:46.303Z,96461.72
2022-09-30T18:41:48.873Z,96441.16
2022-09-30T18:46:51.517Z,96457.50
2022-09-30T18:51:53.864Z,96482.88
2022-09-30T18:56:55.904Z,96500.84
2022-09-30T19:01:59.829Z,96479.69
2022-09-30T19:07:03.221Z,96502.75
2022-09-30T19:12:05.546Z,96498.09
2022-09-30T19:17:07.620Z,96500.44
2022-09-30T19:22:10.872Z,96509.13
2022-09-30T19:27:13.089Z,96519.34
2022-09-30T19:32:15.622Z,96531.97
2022-09-30T19:37:26.433Z,96525.72
2022-09-30T19:42:29.952Z,96517.34
2022-09-30T19:47:34.316Z,96536.88
2022-09-30T19:52:48.647Z,96527.72
2022-09-30T19:57:53.836Z,96521.47
2022-09-30T20:02:57.781Z,96535.47
2022-09-30T20:07:59.841Z,96541.53
2022-09-30T20:13:03.163Z,96514.41
2022-09-30T20:18:06.308Z,96521.50
2022-09-30T20:23:08.879Z,96513.25
2022-09-30T20:28:11.105Z,96519.81
2022-09-30T20:33:20.754Z,96530.88
2022-09-30T20:38:25.151Z,96530.22
2022-09-30T20:43:32.176Z,96562.34
2022-09-30T20:48:37.325Z,96565.53
2022-09-30T20:53:40.021Z,96546.13
2022-09-30T20:58:42.682Z,96559.63
2022-09-30T21:03:50.442Z,96570.94
2022-09-30T21:08:54.445Z,96565.25
2022-09-30T21:13:57.041Z,96565.78
2022-09-30T21:18:59.274Z,96576.03
2022-09-30T21:24:01.719Z,96573.59
2022-09-30T21:29:03.964Z,96576.97
2022-09-30T21:34:06.012Z,96561.50
2022-09-30T21:39:08.073Z,96561.78
2022-09-30T21:44:10.583Z,96577.44
2022-09-30T21:49:21.264Z,96584.06
2022-09-30T21:54:23.616Z,96586.47
2022-09-30T21:59:25.865Z,96567.41
2022-09-30T22:04:27.903Z,96568.53
2022-09-30T22:09:30.012Z,96565.25
2022-09-30T22:14:32.209Z,96580.34
2022-09-30T22:19:34.269Z,96562.94
2022-09-30T22:24:37.207Z,96599.91
2022-09-30T22:29:39.345Z,96577.69
2022-09-30T22:35:00.169Z,96581.75
2022-09-30T22:40:02.417Z,96599.16
2022-09-30T22:45:05.292Z,96614.56
2022-09-30T22:50:08.229Z,96585.84
2022-09-30T22:55:10.561Z,96618.88
2022-09-30T23:00:13.404Z,96611.34
2022-09-30T23:05:15.753Z,96609.88
2022-09-30T23:10:17.801Z,96620.38
2022-09-30T23:15:20.078Z,96614.94
2022-09-30T23:20:22.317Z,96628.25
2022-09-30T23:25:24.403Z,96622.06
2022-09-30T23:30:28.062Z,96641.25
2022-09-30T23:35:30.331Z,96598.28
2022-09-30T23:40:32.949Z,96630.41
2022-09-30T23:45:35.316Z,96632.78
2022-09-30T23:50:37.494Z,96650.38
2022-09-30T23:55:39.915Z,96635.53
